sensor_id;sensor_type;location;lat;lon;timestamp;P1;durP1;ratioP1;P2;durP2;ratioP2
16354;SDS011;8287;51.644;8.494;2023-11-21T00:02:02;5.03;;;2.55;;
16354;SDS011;8287;51.644;8.494;2023-11-21T00:04:29;5.32;;;2.10;;
16354;SDS011;8287;51.644;8.494;2023-11-21T00:06:56;4.35;;;2.70;;
16354;SDS011;8287;51.644;8.494;2023-11-21T00:09:22;8.18;;;3.30;;
16354;SDS011;8287;51.644;8.494;2023-11-21T00:11:49;6.93;;;3.28;;
16354;SDS011;8287;51.644;8.494;2023-11-21T00:14:16;5.85;;;3.40;;
16354;SDS011;8287;51.644;8.494;2023-11-21T00:16:44;6.53;;;3.28;;
16354;SDS011;8287;51.644;8.494;2023-11-21T00:19:11;5.53;;;3.25;;
16354;SDS011;8287;51.644;8.494;2023-11-21T00:21:37;4.72;;;3.00;;
16354;SDS011;8287;51.644;8.494;2023-11-21T00:24:04;8.40;;;2.80;;
16354;SDS011;8287;51.644;8.494;2023-11-21T00:26:32;5.55;;;3.13;;
16354;SDS011;8287;51.644;8.494;2023-11-21T00:29:01;10.25;;;3.10;;
16354;SDS011;8287;51.644;8.494;2023-11-21T00:31:28;4.82;;;2.88;;
16354;SDS011;8287;51.644;8.494;2023-11-21T00:33:57;4.63;;;3.30;;
16354;SDS011;8287;51.644;8.494;2023-11-21T00:36:23;4.05;;;2.92;;
16354;SDS011;8287;51.644;8.494;2023-11-21T00:38:51;3.60;;;2.90;;
16354;SDS011;8287;51.644;8.494;2023-11-21T00:41:17;4.85;;;3.13;;
16354;SDS011;8287;51.644;8.494;2023-11-21T00:43:44;4.88;;;2.50;;
16354;SDS011;8287;51.644;8.494;2023-11-21T00:46:11;5.25;;;3.00;;
16354;SDS011;8287;51.644;8.494;2023-11-21T00:48:37;6.85;;;3.28;;
16354;SDS011;8287;51.644;8.494;2023-11-21T00:51:06;3.63;;;2.80;;
16354;SDS011;8287;51.644;8.494;2023-11-21T00:53:32;5.95;;;3.47;;
16354;SDS011;8287;51.644;8.494;2023-11-21T00:55:59;6.53;;;3.70;;
16354;SDS011;8287;51.644;8.494;2023-11-21T00:58:26;4.10;;;3.20;;
16354;SDS011;8287;51.644;8.494;2023-11-21T01:00:53;6.03;;;3.30;;
16354;SDS011;8287;51.644;8.494;2023-11-21T01:03:19;5.20;;;3.17;;
16354;SDS011;8287;51.644;8.494;2023-11-21T01:05:46;6.20;;;3.50;;
16354;SDS011;8287;51.644;8.494;2023-11-21T01:08:16;6.13;;;3.55;;
16354;SDS011;8287;51.644;8.494;2023-11-21T01:10:42;7.72;;;4.20;;
16354;SDS011;8287;51.644;8.494;2023-11-21T01:13:10;4.03;;;3.63;;
16354;SDS011;8287;51.644;8.494;2023-11-21T01:15:37;7.35;;;4.35;;
16354;SDS011;8287;51.644;8.494;2023-11-21T01:18:03;6.35;;;3.70;;
16354;SDS011;8287;51.644;8.494;2023-11-21T01:20:30;8.02;;;4.25;;
16354;SDS011;8287;51.644;8.494;2023-11-21T01:22:57;5.55;;;3.70;;
16354;SDS011;8287;51.644;8.494;2023-11-21T01:25:26;6.82;;;3.83;;
16354;SDS011;8287;51.644;8.494;2023-11-21T01:27:52;4.53;;;3.63;;
16354;SDS011;8287;51.644;8.494;2023-11-21T01:30:19;8.85;;;3.90;;
16354;SDS011;8287;51.644;8.494;2023-11-21T01:32:47;5.88;;;3.65;;
16354;SDS011;8287;51.644;8.494;2023-11-21T01:35:13;9.60;;;4.78;;
16354;SDS011;8287;51.644;8.494;2023-11-21T01:37:40;9.20;;;3.80;;
16354;SDS011;8287;51.644;8.494;2023-11-21T01:40:07;6.90;;;4.10;;
16354;SDS011;8287;51.644;8.494;2023-11-21T01:42:40;5.85;;;4.18;;
16354;SDS011;8287;51.644;8.494;2023-11-21T01:45:07;5.38;;;3.78;;
16354;SDS011;8287;51.644;8.494;2023-11-21T01:47:34;8.07;;;4.65;;
16354;SDS011;8287;51.644;8.494;2023-11-21T01:50:02;5.93;;;3.85;;
16354;SDS011;8287;51.644;8.494;2023-11-21T01:52:30;6.63;;;4.20;;
16354;SDS011;8287;51.644;8.494;2023-11-21T01:54:57;7.13;;;4.65;;
16354;SDS011;8287;51.644;8.494;2023-11-21T01:57:25;8.73;;;5.53;;
16354;SDS011;8287;51.644;8.494;2023-11-21T01:59:53;8.10;;;4.35;;
16354;SDS011;8287;51.644;8.494;2023-11-21T02:02:20;9.73;;;6.20;;
16354;SDS011;8287;51.644;8.494;2023-11-21T02:04:46;13.50;;;5.85;;
16354;SDS011;8287;51.644;8.494;2023-11-21T02:07:13;6.90;;;5.25;;
16354;SDS011;8287;51.644;8.494;2023-11-21T02:09:40;9.05;;;5.28;;
16354;SDS011;8287;51.644;8.494;2023-11-21T02:12:07;8.45;;;5.28;;
16354;SDS011;8287;51.644;8.494;2023-11-21T02:14:35;13.43;;;6.00;;
16354;SDS011;8287;51.644;8.494;2023-11-21T02:17:04;9.43;;;6.00;;
16354;SDS011;8287;51.644;8.494;2023-11-21T02:19:31;14.40;;;6.05;;
16354;SDS011;8287;51.644;8.494;2023-11-21T02:21:59;9.70;;;5.40;;
16354;SDS011;8287;51.644;8.494;2023-11-21T02:24:31;10.38;;;5.03;;
16354;SDS011;8287;51.644;8.494;2023-11-21T02:26:58;9.45;;;5.40;;
16354;SDS011;8287;51.644;8.494;2023-11-21T02:29:25;11.02;;;5.38;;
16354;SDS011;8287;51.644;8.494;2023-11-21T02:31:53;7.97;;;5.55;;
16354;SDS011;8287;51.644;8.494;2023-11-21T02:34:20;8.98;;;5.35;;
16354;SDS011;8287;51.644;8.494;2023-11-21T02:36:48;12.10;;;5.20;;
16354;SDS011;8287;51.644;8.494;2023-11-21T02:39:16;9.63;;;5.10;;
16354;SDS011;8287;51.644;8.494;2023-11-21T02:41:44;10.48;;;6.15;;
16354;SDS011;8287;51.644;8.494;2023-11-21T02:44:11;10.13;;;5.65;;
16354;SDS011;8287;51.644;8.494;2023-11-21T02:46:37;9.40;;;5.53;;
16354;SDS011;8287;51.644;8.494;2023-11-21T02:49:04;7.97;;;5.50;;
16354;SDS011;8287;51.644;8.494;2023-11-21T02:51:32;7.50;;;5.35;;
16354;SDS011;8287;51.644;8.494;2023-11-21T02:53:59;7.55;;;4.97;;
16354;SDS011;8287;51.644;8.494;2023-11-21T02:56:27;8.90;;;5.15;;
16354;SDS011;8287;51.644;8.494;2023-11-21T02:58:56;7.03;;;5.00;;
16354;SDS011;8287;51.644;8.494;2023-11-21T03:01:23;9.95;;;5.25;;
16354;SDS011;8287;51.644;8.494;2023-11-21T03:03:50;8.90;;;5.18;;
16354;SDS011;8287;51.644;8.494;2023-11-21T03:06:17;6.50;;;4.70;;
16354;SDS011;8287;51.644;8.494;2023-11-21T03:08:44;8.00;;;4.63;;
16354;SDS011;8287;51.644;8.494;2023-11-21T03:11:10;5.85;;;4.80;;
16354;SDS011;8287;51.644;8.494;2023-11-21T03:13:38;8.85;;;4.95;;
16354;SDS011;8287;51.644;8.494;2023-11-21T03:16:06;11.70;;;5.38;;
16354;SDS011;8287;51.644;8.494;2023-11-21T03:18:33;6.60;;;5.18;;
16354;SDS011;8287;51.644;8.494;2023-11-21T03:21:01;9.77;;;5.75;;
16354;SDS011;8287;51.644;8.494;2023-11-21T03:23:28;5.57;;;4.03;;
16354;SDS011;8287;51.644;8.494;2023-11-21T03:25:54;7.85;;;5.15;;
16354;SDS011;8287;51.644;8.494;2023-11-21T03:28:21;8.48;;;4.50;;
16354;SDS011;8287;51.644;8.494;2023-11-21T03:30:48;6.72;;;4.13;;
16354;SDS011;8287;51.644;8.494;2023-11-21T03:33:16;9.65;;;4.05;;
16354;SDS011;8287;51.644;8.494;2023-11-21T03:35:43;7.78;;;4.80;;
16354;SDS011;8287;51.644;8.494;2023-11-21T03:38:10;6.05;;;5.28;;
16354;SDS011;8287;51.644;8.494;2023-11-21T03:40:37;10.77;;;5.78;;
16354;SDS011;8287;51.644;8.494;2023-11-21T03:43:04;13.52;;;6.07;;
16354;SDS011;8287;51.644;8.494;2023-11-21T03:45:31;9.27;;;5.25;;
16354;SDS011;8287;51.644;8.494;2023-11-21T03:47:58;10.43;;;5.97;;
16354;SDS011;8287;51.644;8.494;2023-11-21T03:50:28;7.80;;;5.30;;
16354;SDS011;8287;51.644;8.494;2023-11-21T03:52:55;8.15;;;5.63;;
16354;SDS011;8287;51.644;8.494;2023-11-21T03:55:21;8.05;;;5.20;;
16354;SDS011;8287;51.644;8.494;2023-11-21T03:57:49;6.88;;;4.55;;
16354;SDS011;8287;51.644;8.494;2023-11-21T04:00:16;6.38;;;4.78;;
16354;SDS011;8287;51.644;8.494;2023-11-21T04:02:45;8.65;;;5.30;;
16354;SDS011;8287;51.644;8.494;2023-11-21T04:05:12;8.20;;;5.05;;
16354;SDS011;8287;51.644;8.494;2023-11-21T04:07:39;7.40;;;4.63;;
16354;SDS011;8287;51.644;8.494;2023-11-21T04:10:06;7.70;;;4.70;;
16354;SDS011;8287;51.644;8.494;2023-11-21T04:12:34;8.65;;;5.15;;
16354;SDS011;8287;51.644;8.494;2023-11-21T04:15:01;10.00;;;4.60;;
16354;SDS011;8287;51.644;8.494;2023-11-21T04:17:28;8.30;;;4.15;;
16354;SDS011;8287;51.644;8.494;2023-11-21T04:19:54;8.93;;;4.88;;
16354;SDS011;8287;51.644;8.494;2023-11-21T04:22:21;6.90;;;4.80;;
16354;SDS011;8287;51.644;8.494;2023-11-21T04:24:49;4.70;;;4.13;;
16354;SDS011;8287;51.644;8.494;2023-11-21T04:27:16;6.05;;;4.40;;
16354;SDS011;8287;51.644;8.494;2023-11-21T04:29:43;6.60;;;4.25;;
16354;SDS011;8287;51.644;8.494;2023-11-21T04:32:10;5.88;;;4.43;;
16354;SDS011;8287;51.644;8.494;2023-11-21T04:34:37;6.63;;;4.70;;
16354;SDS011;8287;51.644;8.494;2023-11-21T04:37:04;7.45;;;4.65;;
16354;SDS011;8287;51.644;8.494;2023-11-21T04:39:31;5.20;;;4.68;;
16354;SDS011;8287;51.644;8.494;2023-11-21T04:41:59;8.07;;;4.97;;
16354;SDS011;8287;51.644;8.494;2023-11-21T04:44:26;6.63;;;4.82;;
16354;SDS011;8287;51.644;8.494;2023-11-21T04:46:52;5.93;;;4.40;;
16354;SDS011;8287;51.644;8.494;2023-11-21T04:49:19;6.68;;;4.72;;
16354;SDS011;8287;51.644;8.494;2023-11-21T04:51:46;5.88;;;3.90;;
16354;SDS011;8287;51.644;8.494;2023-11-21T04:54:12;8.07;;;4.90;;
16354;SDS011;8287;51.644;8.494;2023-11-21T04:56:39;8.25;;;4.60;;
16354;SDS011;8287;51.644;8.494;2023-11-21T04:59:07;8.95;;;5.13;;
16354;SDS011;8287;51.644;8.494;2023-11-21T05:01:34;7.53;;;4.68;;
16354;SDS011;8287;51.644;8.494;2023-11-21T05:04:01;9.32;;;5.03;;
16354;SDS011;8287;51.644;8.494;2023-11-21T05:06:28;10.73;;;4.95;;
16354;SDS011;8287;51.644;8.494;2023-11-21T05:08:55;7.60;;;4.72;;
16354;SDS011;8287;51.644;8.494;2023-11-21T05:11:24;5.57;;;4.47;;
16354;SDS011;8287;51.644;8.494;2023-11-21T05:13:51;5.40;;;4.88;;
16354;SDS011;8287;51.644;8.494;2023-11-21T05:16:21;7.72;;;5.07;;
16354;SDS011;8287;51.644;8.494;2023-11-21T05:18:48;6.18;;;5.15;;
16354;SDS011;8287;51.644;8.494;2023-11-21T05:21:15;7.03;;;5.47;;
16354;SDS011;8287;51.644;8.494;2023-11-21T05:23:42;8.30;;;4.53;;
16354;SDS011;8287;51.644;8.494;2023-11-21T05:26:09;9.00;;;5.65;;
16354;SDS011;8287;51.644;8.494;2023-11-21T05:28:35;9.80;;;5.72;;
16354;SDS011;8287;51.644;8.494;2023-11-21T05:31:02;8.98;;;5.93;;
16354;SDS011;8287;51.644;8.494;2023-11-21T05:33:30;7.00;;;5.15;;
16354;SDS011;8287;51.644;8.494;2023-11-21T05:35:58;10.50;;;6.20;;
16354;SDS011;8287;51.644;8.494;2023-11-21T05:38:25;11.68;;;6.25;;
16354;SDS011;8287;51.644;8.494;2023-11-21T05:40:51;8.13;;;5.50;;
16354;SDS011;8287;51.644;8.494;2023-11-21T05:43:18;8.75;;;5.57;;
16354;SDS011;8287;51.644;8.494;2023-11-21T05:45:44;11.18;;;5.78;;
16354;SDS011;8287;51.644;8.494;2023-11-21T05:48:11;7.88;;;5.20;;
16354;SDS011;8287;51.644;8.494;2023-11-21T05:50:39;11.52;;;6.43;;
16354;SDS011;8287;51.644;8.494;2023-11-21T05:53:06;10.32;;;6.20;;
16354;SDS011;8287;51.644;8.494;2023-11-21T05:55:34;8.88;;;6.13;;
16354;SDS011;8287;51.644;8.494;2023-11-21T05:58:01;8.10;;;6.25;;
16354;SDS011;8287;51.644;8.494;2023-11-21T06:00:27;9.07;;;5.75;;
16354;SDS011;8287;51.644;8.494;2023-11-21T06:02:54;11.77;;;6.22;;
16354;SDS011;8287;51.644;8.494;2023-11-21T06:05:22;7.97;;;6.13;;
16354;SDS011;8287;51.644;8.494;2023-11-21T06:07:51;11.70;;;6.45;;
16354;SDS011;8287;51.644;8.494;2023-11-21T06:10:19;12.45;;;5.93;;
16354;SDS011;8287;51.644;8.494;2023-11-21T06:12:46;9.43;;;6.68;;
16354;SDS011;8287;51.644;8.494;2023-11-21T06:15:13;14.10;;;7.47;;
16354;SDS011;8287;51.644;8.494;2023-11-21T06:17:40;14.48;;;7.28;;
16354;SDS011;8287;51.644;8.494;2023-11-21T06:20:08;11.32;;;8.05;;
16354;SDS011;8287;51.644;8.494;2023-11-21T06:22:39;14.85;;;8.30;;
16354;SDS011;8287;51.644;8.494;2023-11-21T06:25:09;11.05;;;7.68;;
16354;SDS011;8287;51.644;8.494;2023-11-21T06:27:38;16.20;;;7.72;;
16354;SDS011;8287;51.644;8.494;2023-11-21T06:30:06;11.73;;;8.45;;
16354;SDS011;8287;51.644;8.494;2023-11-21T06:32:34;12.30;;;8.05;;
16354;SDS011;8287;51.644;8.494;2023-11-21T06:35:02;13.45;;;7.97;;
16354;SDS011;8287;51.644;8.494;2023-11-21T06:37:29;14.82;;;8.43;;
16354;SDS011;8287;51.644;8.494;2023-11-21T06:39:56;11.23;;;8.05;;
16354;SDS011;8287;51.644;8.494;2023-11-21T06:42:25;11.98;;;8.40;;
16354;SDS011;8287;51.644;8.494;2023-11-21T06:44:54;12.20;;;8.48;;
16354;SDS011;8287;51.644;8.494;2023-11-21T06:47:22;15.13;;;9.02;;
16354;SDS011;8287;51.644;8.494;2023-11-21T06:49:50;17.10;;;10.77;;
16354;SDS011;8287;51.644;8.494;2023-11-21T06:52:16;17.40;;;9.95;;
16354;SDS011;8287;51.644;8.494;2023-11-21T06:54:43;13.57;;;9.50;;
16354;SDS011;8287;51.644;8.494;2023-11-21T06:57:10;14.70;;;10.32;;
16354;SDS011;8287;51.644;8.494;2023-11-21T06:59:38;18.52;;;10.40;;
16354;SDS011;8287;51.644;8.494;2023-11-21T07:02:05;17.02;;;11.90;;
16354;SDS011;8287;51.644;8.494;2023-11-21T07:04:32;17.85;;;10.65;;
16354;SDS011;8287;51.644;8.494;2023-11-21T07:06:59;17.92;;;10.80;;
16354;SDS011;8287;51.644;8.494;2023-11-21T07:09:26;17.25;;;10.90;;
16354;SDS011;8287;51.644;8.494;2023-11-21T07:11:52;19.35;;;11.38;;
16354;SDS011;8287;51.644;8.494;2023-11-21T07:14:20;18.63;;;9.50;;
16354;SDS011;8287;51.644;8.494;2023-11-21T07:16:48;17.80;;;10.13;;
16354;SDS011;8287;51.644;8.494;2023-11-21T07:19:16;16.00;;;10.13;;
16354;SDS011;8287;51.644;8.494;2023-11-21T07:21:43;18.10;;;10.82;;
16354;SDS011;8287;51.644;8.494;2023-11-21T07:24:09;19.13;;;10.15;;
16354;SDS011;8287;51.644;8.494;2023-11-21T07:26:37;16.80;;;10.88;;
16354;SDS011;8287;51.644;8.494;2023-11-21T07:29:04;20.15;;;11.60;;
16354;SDS011;8287;51.644;8.494;2023-11-21T07:31:31;17.20;;;11.70;;
16354;SDS011;8287;51.644;8.494;2023-11-21T07:34:02;26.17;;;12.25;;
16354;SDS011;8287;51.644;8.494;2023-11-21T07:36:29;18.50;;;12.02;;
16354;SDS011;8287;51.644;8.494;2023-11-21T07:38:56;25.05;;;12.05;;
16354;SDS011;8287;51.644;8.494;2023-11-21T07:41:23;21.63;;;13.55;;
16354;SDS011;8287;51.644;8.494;2023-11-21T07:43:50;22.15;;;12.68;;
16354;SDS011;8287;51.644;8.494;2023-11-21T07:46:17;18.58;;;11.60;;
16354;SDS011;8287;51.644;8.494;2023-11-21T07:48:45;21.17;;;12.73;;
16354;SDS011;8287;51.644;8.494;2023-11-21T07:51:13;19.38;;;12.68;;
16354;SDS011;8287;51.644;8.494;2023-11-21T07:53:40;25.90;;;13.25;;
16354;SDS011;8287;51.644;8.494;2023-11-21T07:56:07;18.90;;;12.32;;
16354;SDS011;8287;51.644;8.494;2023-11-21T07:58:35;24.45;;;13.15;;
16354;SDS011;8287;51.644;8.494;2023-11-21T08:01:02;22.65;;;14.25;;
16354;SDS011;8287;51.644;8.494;2023-11-21T08:03:29;28.38;;;15.07;;
16354;SDS011;8287;51.644;8.494;2023-11-21T08:05:59;29.27;;;15.20;;
16354;SDS011;8287;51.644;8.494;2023-11-21T08:08:32;28.25;;;15.23;;
16354;SDS011;8287;51.644;8.494;2023-11-21T08:10:59;37.58;;;16.95;;
16354;SDS011;8287;51.644;8.494;2023-11-21T08:13:26;31.92;;;17.10;;
16354;SDS011;8287;51.644;8.494;2023-11-21T08:15:55;35.10;;;17.60;;
16354;SDS011;8287;51.644;8.494;2023-11-21T08:18:26;33.10;;;17.30;;
16354;SDS011;8287;51.644;8.494;2023-11-21T08:20:54;35.78;;;17.40;;
16354;SDS011;8287;51.644;8.494;2023-11-21T08:23:21;29.70;;;16.30;;
16354;SDS011;8287;51.644;8.494;2023-11-21T08:25:52;27.83;;;17.05;;
16354;SDS011;8287;51.644;8.494;2023-11-21T08:28:19;29.00;;;16.83;;
16354;SDS011;8287;51.644;8.494;2023-11-21T08:30:47;26.08;;;15.73;;
16354;SDS011;8287;51.644;8.494;2023-11-21T08:33:14;33.58;;;17.08;;
16354;SDS011;8287;51.644;8.494;2023-11-21T08:35:40;26.45;;;15.50;;
16354;SDS011;8287;51.644;8.494;2023-11-21T08:38:09;24.45;;;14.52;;
16354;SDS011;8287;51.644;8.494;2023-11-21T08:40:37;32.67;;;17.38;;
16354;SDS011;8287;51.644;8.494;2023-11-21T08:43:05;29.63;;;16.35;;
16354;SDS011;8287;51.644;8.494;2023-11-21T08:45:33;29.40;;;16.40;;
16354;SDS011;8287;51.644;8.494;2023-11-21T08:48:00;36.00;;;18.02;;
16354;SDS011;8287;51.644;8.494;2023-11-21T08:50:27;33.60;;;17.35;;
16354;SDS011;8287;51.644;8.494;2023-11-21T08:52:53;28.58;;;16.02;;
16354;SDS011;8287;51.644;8.494;2023-11-21T08:55:20;30.33;;;16.42;;
16354;SDS011;8287;51.644;8.494;2023-11-21T08:57:47;38.03;;;17.90;;
16354;SDS011;8287;51.644;8.494;2023-11-21T09:00:16;32.70;;;17.15;;
16354;SDS011;8287;51.644;8.494;2023-11-21T09:02:44;32.45;;;17.35;;
16354;SDS011;8287;51.644;8.494;2023-11-21T09:05:12;32.60;;;16.23;;
16354;SDS011;8287;51.644;8.494;2023-11-21T09:07:40;36.63;;;16.65;;
16354;SDS011;8287;51.644;8.494;2023-11-21T09:10:08;31.90;;;16.30;;
16354;SDS011;8287;51.644;8.494;2023-11-21T09:12:35;33.90;;;15.93;;
16354;SDS011;8287;51.644;8.494;2023-11-21T09:15:03;32.08;;;16.45;;
16354;SDS011;8287;51.644;8.494;2023-11-21T09:17:33;33.90;;;15.98;;
16354;SDS011;8287;51.644;8.494;2023-11-21T09:20:00;39.85;;;16.58;;
16354;SDS011;8287;51.644;8.494;2023-11-21T09:22:28;32.65;;;15.68;;
16354;SDS011;8287;51.644;8.494;2023-11-21T09:24:56;30.30;;;15.30;;
16354;SDS011;8287;51.644;8.494;2023-11-21T09:27:24;26.30;;;15.02;;
16354;SDS011;8287;51.644;8.494;2023-11-21T09:29:51;30.20;;;15.38;;
16354;SDS011;8287;51.644;8.494;2023-11-21T09:32:19;26.70;;;14.82;;
16354;SDS011;8287;51.644;8.494;2023-11-21T09:34:48;31.30;;;15.18;;
16354;SDS011;8287;51.644;8.494;2023-11-21T09:37:15;27.77;;;13.48;;
16354;SDS011;8287;51.644;8.494;2023-11-21T09:39:42;23.05;;;13.45;;
16354;SDS011;8287;51.644;8.494;2023-11-21T09:42:10;24.00;;;13.07;;
16354;SDS011;8287;51.644;8.494;2023-11-21T09:44:43;26.70;;;12.00;;
16354;SDS011;8287;51.644;8.494;2023-11-21T09:47:14;23.17;;;12.40;;
16354;SDS011;8287;51.644;8.494;2023-11-21T09:49:42;21.48;;;12.27;;
16354;SDS011;8287;51.644;8.494;2023-11-21T09:52:17;21.40;;;11.45;;
16354;SDS011;8287;51.644;8.494;2023-11-21T09:54:50;22.88;;;12.80;;
16354;SDS011;8287;51.644;8.494;2023-11-21T09:57:19;20.77;;;11.07;;
16354;SDS011;8287;51.644;8.494;2023-11-21T09:59:48;18.23;;;10.85;;
16354;SDS011;8287;51.644;8.494;2023-11-21T10:02:17;16.70;;;10.43;;
16354;SDS011;8287;51.644;8.494;2023-11-21T10:04:47;20.95;;;10.80;;
16354;SDS011;8287;51.644;8.494;2023-11-21T10:07:14;14.95;;;9.70;;
16354;SDS011;8287;51.644;8.494;2023-11-21T10:09:45;16.13;;;10.23;;
16354;SDS011;8287;51.644;8.494;2023-11-21T10:12:13;16.27;;;9.55;;
16354;SDS011;8287;51.644;8.494;2023-11-21T10:14:41;13.52;;;9.43;;
16354;SDS011;8287;51.644;8.494;2023-11-21T10:17:10;15.15;;;9.52;;
16354;SDS011;8287;51.644;8.494;2023-11-21T10:19:39;14.90;;;9.43;;
16354;SDS011;8287;51.644;8.494;2023-11-21T10:22:08;16.35;;;10.13;;
16354;SDS011;8287;51.644;8.494;2023-11-21T10:24:35;13.60;;;10.13;;
16354;SDS011;8287;51.644;8.494;2023-11-21T10:27:02;14.30;;;9.50;;
16354;SDS011;8287;51.644;8.494;2023-11-21T10:29:29;17.77;;;9.85;;
16354;SDS011;8287;51.644;8.494;2023-11-21T10:32:00;13.05;;;9.32;;
16354;SDS011;8287;51.644;8.494;2023-11-21T10:34:28;17.20;;;10.55;;
16354;SDS011;8287;51.644;8.494;2023-11-21T10:36:55;14.95;;;9.90;;
16354;SDS011;8287;51.644;8.494;2023-11-21T10:39:24;14.70;;;10.00;;
16354;SDS011;8287;51.644;8.494;2023-11-21T10:41:56;16.67;;;10.48;;
16354;SDS011;8287;51.644;8.494;2023-11-21T10:44:23;15.48;;;10.82;;
16354;SDS011;8287;51.644;8.494;2023-11-21T10:46:50;16.27;;;10.05;;
16354;SDS011;8287;51.644;8.494;2023-11-21T10:49:21;16.67;;;11.15;;
16354;SDS011;8287;51.644;8.494;2023-11-21T10:51:49;16.45;;;11.05;;
16354;SDS011;8287;51.644;8.494;2023-11-21T10:54:18;21.80;;;12.07;;
16354;SDS011;8287;51.644;8.494;2023-11-21T10:56:47;18.98;;;11.55;;
16354;SDS011;8287;51.644;8.494;2023-11-21T10:59:16;20.45;;;11.50;;
16354;SDS011;8287;51.644;8.494;2023-11-21T11:01:44;20.83;;;12.45;;
16354;SDS011;8287;51.644;8.494;2023-11-21T11:04:12;22.55;;;11.43;;
16354;SDS011;8287;51.644;8.494;2023-11-21T11:06:42;18.85;;;10.93;;
16354;SDS011;8287;51.644;8.494;2023-11-21T11:09:10;18.27;;;11.45;;
16354;SDS011;8287;51.644;8.494;2023-11-21T11:11:41;21.92;;;12.00;;
16354;SDS011;8287;51.644;8.494;2023-11-21T11:14:11;20.95;;;12.02;;
16354;SDS011;8287;51.644;8.494;2023-11-21T11:16:39;19.48;;;10.68;;
16354;SDS011;8287;51.644;8.494;2023-11-21T11:19:08;18.75;;;11.18;;
16354;SDS011;8287;51.644;8.494;2023-11-21T11:21:37;20.40;;;12.18;;
16354;SDS011;8287;51.644;8.494;2023-11-21T11:24:17;21.25;;;12.23;;
16354;SDS011;8287;51.644;8.494;2023-11-21T11:26:59;19.55;;;13.10;;
16354;SDS011;8287;51.644;8.494;2023-11-21T11:29:39;23.75;;;14.50;;
16354;SDS011;8287;51.644;8.494;2023-11-21T11:32:16;18.35;;;12.52;;
16354;SDS011;8287;51.644;8.494;2023-11-21T11:34:53;33.67;;;15.00;;
16354;SDS011;8287;51.644;8.494;2023-11-21T11:37:27;23.73;;;13.07;;
16354;SDS011;8287;51.644;8.494;2023-11-21T11:39:56;28.20;;;16.10;;
16354;SDS011;8287;51.644;8.494;2023-11-21T11:42:25;31.00;;;16.25;;
16354;SDS011;8287;51.644;8.494;2023-11-21T11:45:00;24.50;;;14.50;;
16354;SDS011;8287;51.644;8.494;2023-11-21T11:47:43;24.33;;;14.35;;
16354;SDS011;8287;51.644;8.494;2023-11-21T11:50:11;27.95;;;17.33;;
16354;SDS011;8287;51.644;8.494;2023-11-21T11:52:42;27.08;;;15.43;;
16354;SDS011;8287;51.644;8.494;2023-11-21T11:55:19;31.05;;;17.33;;
16354;SDS011;8287;51.644;8.494;2023-11-21T11:57:48;26.48;;;14.98;;
16354;SDS011;8287;51.644;8.494;2023-11-21T12:00:23;21.52;;;13.93;;
16354;SDS011;8287;51.644;8.494;2023-11-21T12:03:03;21.45;;;13.93;;
16354;SDS011;8287;51.644;8.494;2023-11-21T12:05:31;16.10;;;11.57;;
16354;SDS011;8287;51.644;8.494;2023-11-21T12:08:01;18.27;;;12.02;;
16354;SDS011;8287;51.644;8.494;2023-11-21T12:10:30;16.83;;;10.52;;
16354;SDS011;8287;51.644;8.494;2023-11-21T12:12:59;18.50;;;11.95;;
16354;SDS011;8287;51.644;8.494;2023-11-21T12:15:28;15.02;;;9.02;;
16354;SDS011;8287;51.644;8.494;2023-11-21T12:17:56;14.05;;;9.35;;
16354;SDS011;8287;51.644;8.494;2023-11-21T12:20:24;11.05;;;8.07;;
16354;SDS011;8287;51.644;8.494;2023-11-21T12:22:53;8.88;;;7.10;;
16354;SDS011;8287;51.644;8.494;2023-11-21T12:25:21;7.07;;;5.90;;
16354;SDS011;8287;51.644;8.494;2023-11-21T12:27:48;9.68;;;6.50;;
16354;SDS011;8287;51.644;8.494;2023-11-21T12:30:16;9.50;;;7.53;;
16354;SDS011;8287;51.644;8.494;2023-11-21T12:32:47;10.25;;;7.47;;
16354;SDS011;8287;51.644;8.494;2023-11-21T12:35:15;11.38;;;7.20;;
16354;SDS011;8287;51.644;8.494;2023-11-21T12:37:44;9.75;;;6.75;;
16354;SDS011;8287;51.644;8.494;2023-11-21T12:40:12;8.07;;;6.07;;
16354;SDS011;8287;51.644;8.494;2023-11-21T12:42:40;14.70;;;9.18;;
16354;SDS011;8287;51.644;8.494;2023-11-21T12:45:09;8.60;;;5.93;;
16354;SDS011;8287;51.644;8.494;2023-11-21T12:47:46;8.88;;;6.15;;
16354;SDS011;8287;51.644;8.494;2023-11-21T12:50:15;7.88;;;5.55;;
16354;SDS011;8287;51.644;8.494;2023-11-21T12:52:42;8.57;;;7.40;;
16354;SDS011;8287;51.644;8.494;2023-11-21T12:55:16;5.63;;;4.75;;
16354;SDS011;8287;51.644;8.494;2023-11-21T12:57:43;5.93;;;5.30;;
16354;SDS011;8287;51.644;8.494;2023-11-21T13:00:11;5.55;;;4.93;;
16354;SDS011;8287;51.644;8.494;2023-11-21T13:02:53;6.82;;;5.50;;
16354;SDS011;8287;51.644;8.494;2023-11-21T13:05:29;9.07;;;6.05;;
16354;SDS011;8287;51.644;8.494;2023-11-21T13:07:57;8.68;;;5.53;;
16354;SDS011;8287;51.644;8.494;2023-11-21T13:10:27;7.63;;;5.78;;
16354;SDS011;8287;51.644;8.494;2023-11-21T13:12:56;10.60;;;7.88;;
16354;SDS011;8287;51.644;8.494;2023-11-21T13:15:25;13.63;;;8.80;;
16354;SDS011;8287;51.644;8.494;2023-11-21T13:17:54;9.40;;;7.55;;
16354;SDS011;8287;51.644;8.494;2023-11-21T13:20:22;9.30;;;7.75;;
16354;SDS011;8287;51.644;8.494;2023-11-21T13:22:51;8.57;;;7.68;;
16354;SDS011;8287;51.644;8.494;2023-11-21T13:25:19;7.95;;;6.25;;
16354;SDS011;8287;51.644;8.494;2023-11-21T13:27:47;8.07;;;6.40;;
16354;SDS011;8287;51.644;8.494;2023-11-21T13:30:13;8.35;;;6.22;;
16354;SDS011;8287;51.644;8.494;2023-11-21T13:32:41;7.40;;;6.07;;
16354;SDS011;8287;51.644;8.494;2023-11-21T13:35:10;8.80;;;5.55;;
16354;SDS011;8287;51.644;8.494;2023-11-21T13:37:46;7.18;;;6.03;;
16354;SDS011;8287;51.644;8.494;2023-11-21T13:40:14;6.55;;;5.45;;
16354;SDS011;8287;51.644;8.494;2023-11-21T13:42:45;9.27;;;6.00;;
16354;SDS011;8287;51.644;8.494;2023-11-21T13:45:11;5.40;;;4.90;;
16354;SDS011;8287;51.644;8.494;2023-11-21T13:47:39;7.63;;;5.75;;
16354;SDS011;8287;51.644;8.494;2023-11-21T13:50:06;8.02;;;6.03;;
16354;SDS011;8287;51.644;8.494;2023-11-21T13:52:43;7.25;;;5.90;;
16354;SDS011;8287;51.644;8.494;2023-11-21T13:55:10;5.35;;;4.85;;
16354;SDS011;8287;51.644;8.494;2023-11-21T13:57:40;7.55;;;5.78;;
16354;SDS011;8287;51.644;8.494;2023-11-21T14:00:08;10.27;;;6.63;;
16354;SDS011;8287;51.644;8.494;2023-11-21T14:02:57;7.32;;;5.75;;
16354;SDS011;8287;51.644;8.494;2023-11-21T14:05:25;8.50;;;6.32;;
16354;SDS011;8287;51.644;8.494;2023-11-21T14:07:55;7.60;;;6.20;;
16354;SDS011;8287;51.644;8.494;2023-11-21T14:10:28;9.35;;;6.55;;
16354;SDS011;8287;51.644;8.494;2023-11-21T14:13:02;7.63;;;5.88;;
16354;SDS011;8287;51.644;8.494;2023-11-21T14:15:29;7.95;;;4.97;;
16354;SDS011;8287;51.644;8.494;2023-11-21T14:17:58;5.20;;;4.63;;
16354;SDS011;8287;51.644;8.494;2023-11-21T14:20:28;7.65;;;4.50;;
16354;SDS011;8287;51.644;8.494;2023-11-21T14:22:56;8.05;;;4.70;;
16354;SDS011;8287;51.644;8.494;2023-11-21T14:25:23;5.03;;;4.25;;
16354;SDS011;8287;51.644;8.494;2023-11-21T14:27:52;8.02;;;6.22;;
16354;SDS011;8287;51.644;8.494;2023-11-21T14:30:18;5.88;;;5.18;;
16354;SDS011;8287;51.644;8.494;2023-11-21T14:32:47;9.68;;;6.28;;
16354;SDS011;8287;51.644;8.494;2023-11-21T14:35:14;5.65;;;4.53;;
16354;SDS011;8287;51.644;8.494;2023-11-21T14:37:41;8.80;;;5.35;;
16354;SDS011;8287;51.644;8.494;2023-11-21T14:40:10;6.50;;;5.15;;
16354;SDS011;8287;51.644;8.494;2023-11-21T14:42:41;7.20;;;4.85;;
16354;SDS011;8287;51.644;8.494;2023-11-21T14:45:08;7.35;;;6.03;;
16354;SDS011;8287;51.644;8.494;2023-11-21T14:47:38;9.93;;;6.10;;
16354;SDS011;8287;51.644;8.494;2023-11-21T14:50:09;6.85;;;5.75;;
16354;SDS011;8287;51.644;8.494;2023-11-21T14:53:03;7.70;;;5.75;;
16354;SDS011;8287;51.644;8.494;2023-11-21T14:55:32;6.65;;;5.72;;
16354;SDS011;8287;51.644;8.494;2023-11-21T14:58:11;7.15;;;5.80;;